Time;durP1;ratioP1;P1;durP2;ratioP2;P2;SDS_P1;SDS_P2;PMS_P1;PMS_P2;Temp;Humidity;BMP_temperature;BMP_pressure;BME280_temperature;BME280_humidity;BME280_pressure;Samples;Min_cycle;Max_cycle;Signal;HPM_P1;HPM_P2
2022/04/25 00:02:12;;;;;;;0.60;0.60;;;9.10;99.90;;;;;;5111594;28;20574;-72
2022/04/25 00:04:37;;;;;;;0.70;0.70;;;9.10;99.90;;;;;;5111619;28;20518;-72
2022/04/25 00:07:03;;;;;;;0.70;0.70;;;9.10;99.90;;;;;;5111469;28;20626;-72
2022/04/25 00:09:29;;;;;;;0.70;0.70;;;9.10;99.90;;;;;;5110786;28;20177;-71
2022/04/25 00:11:54;;;;;;;0.70;0.70;;;9.10;99.90;;;;;;5111179;28;20636;-71
2022/04/25 00:14:20;;;;;;;0.60;0.60;;;9.10;99.90;;;;;;5111280;28;20188;-71
2022/04/25 00:16:45;;;;;;;0.70;0.70;;;9.10;99.90;;;;;;5111638;28;20611;-71
2022/04/25 00:19:11;;;;;;;0.70;0.70;;;9.10;99.90;;;;;;5110893;28;20230;-71
2022/04/25 00:21:37;;;;;;;0.60;0.60;;;9.10;99.90;;;;;;5111315;28;20193;-72
2022/04/25 00:24:02;;;;;;;0.70;0.70;;;9.10;99.90;;;;;;5111246;28;20536;-71
2022/04/25 00:26:28;;;;;;;0.70;0.70;;;9.10;99.90;;;;;;5111242;28;20177;-71
2022/04/25 00:28:53;;;;;;;0.70;0.70;;;9.20;99.90;;;;;;5110560;28;20239;-72
2022/04/25 00:31:19;;;;;;;0.70;0.70;;;9.20;99.90;;;;;;5111123;28;20689;-71
2022/04/25 00:33:45;;;;;;;0.60;0.60;;;9.20;99.90;;;;;;5112351;28;20194;-71
2022/04/25 00:36:10;;;;;;;0.70;0.70;;;9.20;99.90;;;;;;5114872;28;20207;-72
2022/04/25 00:38:36;;;;;;;0.60;0.60;;;9.10;99.90;;;;;;5114764;27;20264;-73
2022/04/25 00:41:01;;;;;;;0.70;0.70;;;9.20;99.90;;;;;;5114070;28;20212;-71
2022/04/25 00:43:27;;;;;;;0.67;0.67;;;9.20;99.90;;;;;;5114588;28;20649;-71
2022/04/25 00:45:52;;;;;;;0.60;0.60;;;9.20;99.90;;;;;;5114784;28;20180;-73
2022/04/25 00:48:18;;;;;;;0.50;0.50;;;9.10;99.90;;;;;;5114745;28;20212;-71
2022/04/25 00:50:45;;;;;;;0.70;0.70;;;9.10;99.90;;;;;;5114184;28;20191;-72
2022/04/25 00:53:10;;;;;;;0.80;0.80;;;9.10;99.90;;;;;;5114442;28;20180;-71
2022/04/25 00:55:36;;;;;;;0.50;0.50;;;9.10;99.90;;;;;;5114361;28;20170;-72
2022/04/25 00:58:02;;;;;;;0.80;0.80;;;9.10;99.90;;;;;;5114257;28;20219;-72
2022/04/25 01:00:28;;;;;;;0.63;0.63;;;9.10;99.90;;;;;;5113721;28;20196;-71
2022/04/25 01:02:54;;;;;;;0.70;0.70;;;9.10;99.90;;;;;;5114373;28;20624;-72
2022/04/25 01:05:19;;;;;;;0.70;0.70;;;9.10;99.90;;;;;;5114233;28;20614;-71
2022/04/25 01:07:45;;;;;;;0.70;0.70;;;9.00;99.90;;;;;;5114017;28;20677;-71
2022/04/25 01:10:11;;;;;;;0.70;0.70;;;9.10;99.90;;;;;;5113475;28;20162;-72
2022/04/25 01:12:37;;;;;;;0.67;0.67;;;9.10;99.90;;;;;;5113978;28;20257;-72
2022/04/25 01:15:09;;;;;;;0.60;0.60;;;9.00;99.90;;;;;;5114124;28;20177;-72
2022/04/25 01:17:35;;;;;;;0.60;0.60;;;9.00;99.90;;;;;;5113925;28;20680;-71
2022/04/25 01:20:00;;;;;;;0.70;0.70;;;9.00;99.90;;;;;;5113502;28;20169;-71
2022/04/25 01:22:35;;;;;;;0.73;0.73;;;9.00;99.90;;;;;;5113946;28;20608;-71
2022/04/25 01:27:45;;;;;;;0.67;0.67;;;9.00;99.90;;;;;;5113953;28;20598;-71
2022/04/25 01:30:11;;;;;;;0.70;0.70;;;9.00;99.90;;;;;;5113198;28;20292;-71
2022/04/25 01:32:38;;;;;;;0.67;0.67;;;9.00;99.90;;;;;;5113394;28;20177;-72
2022/04/25 01:35:04;;;;;;;0.60;0.60;;;9.00;99.90;;;;;;5113688;28;20181;-71
2022/04/25 01:37:31;;;;;;;0.80;0.80;;;8.90;99.90;;;;;;5113537;28;20333;-71
2022/04/25 01:39:57;;;;;;;0.70;0.70;;;8.90;99.90;;;;;;5112814;28;20184;-71
2022/04/25 01:42:23;;;;;;;0.67;0.67;;;8.90;99.90;;;;;;5113422;28;20181;-70
2022/04/25 01:44:50;;;;;;;0.70;0.70;;;8.90;99.90;;;;;;5113338;28;20541;-71
2022/04/25 01:47:15;;;;;;;0.70;0.70;;;8.90;99.90;;;;;;5112913;28;20220;-73
2022/04/25 01:49:41;;;;;;;0.70;0.70;;;8.90;99.90;;;;;;5112841;28;20172;-71
2022/04/25 01:52:09;;;;;;;0.70;0.70;;;8.90;99.90;;;;;;5113345;28;20192;-71
2022/04/25 01:54:35;;;;;;;0.70;0.70;;;8.90;99.90;;;;;;5113182;28;20697;-71
2022/04/25 01:57:03;;;;;;;0.70;0.70;;;8.80;99.90;;;;;;5113258;28;20212;-72
2022/04/25 01:59:30;;;;;;;0.60;0.60;;;8.90;99.90;;;;;;5112653;28;20169;-71
2022/04/25 02:01:56;;;;;;;0.70;0.70;;;8.90;99.90;;;;;;5113073;28;20258;-71
2022/04/25 02:04:22;;;;;;;0.73;0.73;;;8.90;99.90;;;;;;5113098;28;20260;-71
2022/04/25 02:06:49;;;;;;;0.70;0.70;;;8.80;99.90;;;;;;5112935;28;20597;-72
2022/04/25 02:09:14;;;;;;;0.70;0.70;;;8.80;99.90;;;;;;5112685;28;20216;-71
2022/04/25 02:11:40;;;;;;;0.70;0.70;;;8.80;99.90;;;;;;5112882;28;20193;-71
2022/04/25 02:14:05;;;;;;;0.70;0.70;;;8.80;99.90;;;;;;5112875;28;20185;-72
2022/04/25 02:16:31;;;;;;;0.80;0.80;;;8.70;99.90;;;;;;5112904;28;20344;-71
2022/04/25 02:18:57;;;;;;;0.80;0.80;;;8.70;99.90;;;;;;5112407;28;20177;-71
2022/04/25 02:21:23;;;;;;;0.70;0.70;;;8.60;99.90;;;;;;5113162;28;20203;-71
2022/04/25 02:23:49;;;;;;;0.80;0.80;;;8.60;99.90;;;;;;5112823;28;20196;-72
2022/04/25 02:26:15;;;;;;;0.70;0.70;;;8.60;99.90;;;;;;5112823;28;20646;-71
2022/04/25 02:28:40;;;;;;;0.73;0.73;;;8.70;99.90;;;;;;5112242;28;20211;-71
2022/04/25 02:31:07;;;;;;;0.77;0.77;;;8.60;99.90;;;;;;5111946;27;20883;-72
2022/04/25 02:33:34;;;;;;;0.70;0.70;;;8.60;99.90;;;;;;5112826;28;20200;-71
2022/04/25 02:36:00;;;;;;;0.73;0.73;;;8.70;99.90;;;;;;5113575;28;20173;-71
2022/04/25 02:38:26;;;;;;;0.70;0.70;;;8.60;99.90;;;;;;5112624;28;20173;-71
2022/04/25 02:41:08;;;;;;;0.70;0.70;;;8.60;99.90;;;;;;5111780;27;20204;-70
2022/04/25 02:43:37;;;;;;;0.77;0.77;;;8.60;99.90;;;;;;5112397;28;20254;-71
2022/04/25 02:46:05;;;;;;;0.77;0.77;;;8.60;99.90;;;;;;5112124;28;20626;-69
2022/04/25 02:48:32;;;;;;;0.70;0.70;;;8.60;99.90;;;;;;5111980;28;20201;-70
2022/04/25 02:50:57;;;;;;;0.70;0.70;;;8.60;99.90;;;;;;5111577;28;20197;-69
2022/04/25 02:53:24;;;;;;;0.80;0.80;;;8.60;99.90;;;;;;5112249;28;20185;-69
2022/04/25 02:55:53;;;;;;;0.67;0.67;;;8.60;99.90;;;;;;5112178;28;20264;-70
2022/04/25 02:58:20;;;;;;;0.63;0.63;;;8.50;99.90;;;;;;5112147;28;20226;-70
2022/04/25 03:00:46;;;;;;;0.77;0.77;;;8.50;99.90;;;;;;5111527;28;20194;-70
2022/04/25 03:03:15;;;;;;;0.70;0.70;;;8.50;99.90;;;;;;5112031;28;20173;-70
2022/04/25 03:05:43;;;;;;;0.70;0.70;;;8.40;99.90;;;;;;5112096;28;20201;-70
2022/04/25 03:08:13;;;;;;;0.63;0.63;;;8.30;99.90;;;;;;5112009;28;20295;-70
2022/04/25 03:10:39;;;;;;;0.80;0.80;;;8.30;99.90;;;;;;5111223;28;20622;-70
2022/04/25 03:13:06;;;;;;;0.80;0.80;;;8.30;99.90;;;;;;5112097;28;20256;-70
2022/04/25 03:15:33;;;;;;;0.70;0.70;;;8.30;99.90;;;;;;5111956;28;20181;-71
2022/04/25 03:17:59;;;;;;;0.70;0.70;;;8.30;99.90;;;;;;5111969;28;20203;-72
2022/04/25 03:20:25;;;;;;;0.60;0.60;;;8.30;99.90;;;;;;5111076;28;20558;-71
2022/04/25 03:22:50;;;;;;;0.70;0.70;;;8.40;99.90;;;;;;5111483;28;20245;-71
2022/04/25 03:25:16;;;;;;;0.70;0.70;;;8.40;99.90;;;;;;5111963;28;20202;-71
2022/04/25 03:27:42;;;;;;;0.70;0.70;;;8.30;99.90;;;;;;5111625;28;20722;-72
2022/04/25 03:30:08;;;;;;;0.60;0.60;;;8.30;99.90;;;;;;5110981;28;20514;-71
2022/04/25 03:32:34;;;;;;;0.60;0.60;;;8.30;99.90;;;;;;5111425;28;20534;-71
2022/04/25 03:35:03;;;;;;;0.67;0.67;;;8.20;99.90;;;;;;5111712;28;20284;-72
2022/04/25 03:37:30;;;;;;;0.70;0.70;;;8.10;99.90;;;;;;5111752;28;20169;-71
2022/04/25 03:39:57;;;;;;;0.70;0.70;;;8.00;99.90;;;;;;5111218;28;20177;-71
2022/04/25 03:42:24;;;;;;;0.70;0.70;;;7.80;99.90;;;;;;5111882;28;20268;-71
2022/04/25 03:44:50;;;;;;;0.80;0.80;;;7.70;99.90;;;;;;5111364;28;20660;-72
2022/04/25 03:47:16;;;;;;;0.70;0.70;;;7.60;99.90;;;;;;5111779;28;20348;-72
2022/04/25 03:49:41;;;;;;;0.60;0.60;;;7.60;99.90;;;;;;5111080;28;20513;-72
2022/04/25 03:52:07;;;;;;;0.60;0.60;;;7.50;99.90;;;;;;5111451;28;20642;-71
2022/04/25 03:57:17;;;;;;;0.70;0.70;;;7.60;99.90;;;;;;5111459;28;20192;-71
2022/04/25 03:59:42;;;;;;;0.80;0.80;;;7.60;99.90;;;;;;5110788;28;20177;-72
2022/04/25 04:02:08;;;;;;;0.70;0.70;;;7.70;99.90;;;;;;5111338;28;20254;-72
2022/04/25 04:04:33;;;;;;;0.70;0.70;;;7.70;99.90;;;;;;5111452;28;20256;-71
2022/04/25 04:06:59;;;;;;;0.73;0.73;;;7.80;99.90;;;;;;5111012;28;20527;-72
2022/04/25 04:12:10;;;;;;;0.70;0.70;;;7.90;99.90;;;;;;5115038;28;20254;-72
2022/04/25 04:14:36;;;;;;;0.70;0.70;;;7.90;99.90;;;;;;5115375;28;20211;-73
2022/04/25 04:17:02;;;;;;;0.70;0.70;;;7.90;99.90;;;;;;5115163;28;20280;-73
2022/04/25 04:19:28;;;;;;;0.70;0.70;;;7.90;99.90;;;;;;5114638;28;20497;-73
2022/04/25 04:21:53;;;;;;;0.70;0.70;;;7.90;99.90;;;;;;5114739;28;20195;-72
2022/04/25 04:24:19;;;;;;;0.70;0.70;;;7.90;99.90;;;;;;5114918;28;20184;-72
2022/04/25 04:26:45;;;;;;;0.70;0.70;;;7.90;99.90;;;;;;5115194;28;20574;-72
2022/04/25 04:29:11;;;;;;;0.80;0.80;;;7.90;99.90;;;;;;5114686;28;20311;-72
2022/04/25 04:31:37;;;;;;;0.70;0.70;;;7.80;99.90;;;;;;5114741;28;20204;-72
2022/04/25 04:34:02;;;;;;;0.70;0.70;;;7.90;99.90;;;;;;5114739;28;20575;-71
2022/04/25 04:36:29;;;;;;;0.77;0.77;;;7.90;99.90;;;;;;5086233;28;20273;-72
2022/04/25 04:38:54;;;;;;;0.80;0.80;;;7.90;99.90;;;;;;5092473;28;20170;-73
2022/04/25 04:41:20;;;;;;;0.70;0.70;;;8.00;99.90;;;;;;5094105;28;20710;-72
2022/04/25 04:43:46;;;;;;;0.80;0.80;;;8.00;99.90;;;;;;5094525;28;20194;-72
2022/04/25 04:46:11;;;;;;;0.70;0.70;;;8.00;99.90;;;;;;5094064;28;20550;-72
2022/04/25 04:48:37;;;;;;;0.60;0.60;;;8.10;99.90;;;;;;5093994;28;20213;-72
2022/04/25 04:51:02;;;;;;;0.60;0.60;;;8.10;99.90;;;;;;5093367;28;20685;-73
2022/04/25 04:53:28;;;;;;;0.80;0.80;;;8.10;99.90;;;;;;5092735;28;20184;-71
2022/04/25 04:55:54;;;;;;;0.70;0.70;;;8.20;99.90;;;;;;5093874;28;20270;-72
2022/04/25 04:58:19;;;;;;;0.70;0.70;;;8.30;99.90;;;;;;5093936;28;20162;-72
2022/04/25 05:00:46;;;;;;;0.70;0.70;;;8.40;99.90;;;;;;5093670;28;20281;-72
2022/04/25 05:03:15;;;;;;;0.73;0.73;;;8.40;99.90;;;;;;5094017;28;20253;-72
2022/04/25 05:05:41;;;;;;;0.60;0.60;;;8.40;99.90;;;;;;5093704;28;20189;-71
2022/04/25 05:08:07;;;;;;;0.60;0.60;;;8.40;99.90;;;;;;5093485;28;20316;-72
2022/04/25 05:10:32;;;;;;;0.80;0.80;;;8.30;99.90;;;;;;5093314;28;20323;-72
2022/04/25 05:12:58;;;;;;;0.70;0.70;;;8.40;99.90;;;;;;5093613;28;20269;-73
2022/04/25 05:15:24;;;;;;;0.63;0.63;;;8.20;99.90;;;;;;5093451;28;20627;-72
2022/04/25 05:17:52;;;;;;;0.77;0.77;;;8.20;99.90;;;;;;5093711;28;20169;-72
2022/04/25 05:20:19;;;;;;;0.53;0.53;;;8.20;99.90;;;;;;5091643;28;20208;-73
2022/04/25 05:22:47;;;;;;;0.70;0.70;;;8.30;99.90;;;;;;5093416;28;20169;-73
2022/04/25 05:25:16;;;;;;;0.60;0.60;;;8.30;99.90;;;;;;5093583;28;20224;-73
2022/04/25 05:27:47;;;;;;;0.70;0.70;;;8.40;99.90;;;;;;5093368;28;20205;-72
2022/04/25 05:30:17;;;;;;;0.70;0.70;;;8.40;99.90;;;;;;5092830;28;20174;-72
2022/04/25 05:32:54;;;;;;;0.70;0.70;;;8.40;99.90;;;;;;5093741;28;20655;-72
2022/04/25 05:35:27;;;;;;;0.70;0.70;;;8.60;99.90;;;;;;5092965;28;20189;-71
2022/04/25 05:37:53;;;;;;;0.60;0.60;;;8.70;99.90;;;;;;5081869;28;20179;-71
2022/04/25 05:40:19;;;;;;;0.70;0.70;;;8.90;99.90;;;;;;5075959;28;20200;-71
2022/04/25 05:42:46;;;;;;;0.67;0.67;;;8.90;99.90;;;;;;5102437;28;20186;-71
2022/04/25 05:45:14;;;;;;;0.63;0.63;;;8.90;99.90;;;;;;5113320;28;20173;-72
2022/04/25 05:47:40;;;;;;;0.60;0.60;;;8.90;99.90;;;;;;5113249;28;20224;-72
2022/04/25 05:52:51;;;;;;;0.50;0.50;;;9.00;99.90;;;;;;5113348;28;20183;-73
2022/04/25 05:55:17;;;;;;;0.60;0.60;;;9.20;99.90;;;;;;5113184;28;20272;-71
2022/04/25 05:57:43;;;;;;;0.70;0.70;;;9.30;99.90;;;;;;5113392;28;20173;-71
2022/04/25 06:00:10;;;;;;;0.50;0.50;;;9.40;99.90;;;;;;5112429;28;20180;-72
2022/04/25 06:02:39;;;;;;;0.67;0.67;;;9.50;99.90;;;;;;5113195;27;20168;-72
2022/04/25 06:05:06;;;;;;;0.60;0.60;;;9.60;99.90;;;;;;5113206;27;20193;-72
2022/04/25 06:07:33;;;;;;;0.53;0.53;;;9.60;99.90;;;;;;5113125;28;20269;-71
2022/04/25 06:10:00;;;;;;;0.60;0.60;;;9.70;99.90;;;;;;5112378;28;20610;-71
2022/04/25 06:12:29;;;;;;;0.50;0.50;;;9.80;99.90;;;;;;5113058;28;20185;-72
2022/04/25 06:14:55;;;;;;;0.50;0.50;;;9.80;99.90;;;;;;5112564;28;20179;-71
2022/04/25 06:17:21;;;;;;;0.60;0.60;;;9.90;99.90;;;;;;5112635;28;20345;-72
2022/04/25 06:19:46;;;;;;;0.50;0.50;;;10.10;99.90;;;;;;5112211;28;20248;-71
2022/04/25 06:22:12;;;;;;;0.50;0.50;;;10.10;99.90;;;;;;5112736;27;20225;-72
2022/04/25 06:24:38;;;;;;;0.50;0.50;;;10.20;99.90;;;;;;5113000;28;20173;-72
2022/04/25 06:27:05;;;;;;;0.53;0.53;;;10.40;99.90;;;;;;5112493;28;20242;-72
2022/04/25 06:29:32;;;;;;;0.40;0.40;;;10.60;99.90;;;;;;5111760;28;20181;-72
2022/04/25 06:31:58;;;;;;;0.50;0.50;;;10.70;99.90;;;;;;5112272;28;20313;-71
2022/04/25 06:34:24;;;;;;;0.60;0.60;;;11.00;99.90;;;;;;5112321;28;20209;-72
2022/04/25 06:36:50;;;;;;;0.40;0.40;;;11.00;99.90;;;;;;5112439;28;20180;-72
2022/04/25 06:39:16;;;;;;;0.50;0.50;;;11.00;3.80;;;;;;5111837;28;20168;-71
2022/04/25 06:41:42;;;;;;;0.47;0.47;;;11.10;8.40;;;;;;5112156;28;20229;-72
2022/04/25 06:44:07;;;;;;;0.40;0.40;;;11.30;1.00;;;;;;5112123;28;20612;-72
2022/04/25 06:46:33;;;;;;;0.50;0.50;;;11.60;1.00;;;;;;5112058;28;20518;-72
2022/04/25 06:51:43;;;;;;;0.40;0.40;;;12.30;1.00;;;;;;5111945;28;20219;-71
2022/04/25 06:54:09;;;;;;;0.50;0.50;;;12.30;1.00;;;;;;5110708;28;20637;-72
2022/04/25 06:56:35;;;;;;;0.40;0.40;;;12.10;1.00;;;;;;5111836;28;20236;-73
2022/04/25 06:59:01;;;;;;;0.50;0.50;;;11.70;1.00;;;;;;5111509;28;20634;-72
2022/04/25 07:01:26;;;;;;;0.50;0.50;;;11.40;1.00;;;;;;5111965;28;20201;-73
2022/04/25 07:03:52;;;;;;;0.40;0.40;;;11.40;1.00;;;;;;5111764;28;20176;-73
2022/04/25 07:06:17;;;;;;;0.53;0.53;;;11.50;1.00;;;;;;5111951;28;20181;-72
2022/04/25 07:08:43;;;;;;;0.50;0.50;;;12.00;1.00;;;;;;5112284;28;20201;-74
2022/04/25 07:11:08;;;;;;;0.50;0.50;;;12.10;1.00;;;;;;5111388;28;20555;-72
2022/04/25 07:13:34;;;;;;;0.50;0.50;;;12.00;1.00;;;;;;5111950;28;20706;-73
2022/04/25 07:15:59;;;;;;;0.43;0.43;;;12.00;1.00;;;;;;5111889;28;20541;-74
2022/04/25 07:18:25;;;;;;;0.40;0.40;;;11.90;1.00;;;;;;5111822;28;20173;-72
2022/04/25 07:20:50;;;;;;;0.40;0.40;;;11.70;1.00;;;;;;5111040;28;20680;-72
2022/04/25 07:28:53;;;;;;;0.40;0.40;;;11.70;1.00;;;;;;5111144;28;20215;-72
2022/04/25 07:31:20;;;;;;;0.50;0.50;;;11.60;1.00;;;;;;5111499;28;20196;-72
2022/04/25 07:33:45;;;;;;;0.50;0.50;;;11.70;1.00;;;;;;5111423;28;20192;-72
2022/04/25 07:36:13;;;;;;;0.50;0.50;;;11.60;1.00;;;;;;5111382;28;20642;-73
2022/04/25 07:38:41;;;;;;;0.40;0.40;;;11.50;99.90;;;;;;5111563;28;20641;-72
2022/04/25 07:41:10;;;;;;;0.50;0.50;;;11.50;99.90;;;;;;5111119;28;20261;-72
2022/04/25 07:43:35;;;;;;;0.50;0.50;;;11.80;1.00;;;;;;5112576;28;20188;-72
2022/04/25 07:46:02;;;;;;;0.40;0.40;;;12.60;47.50;;;;;;5115658;28;20165;-72
2022/04/25 07:48:27;;;;;;;0.50;0.50;;;13.90;1.00;;;;;;5115650;28;20216;-72
2022/04/25 07:50:53;;;;;;;0.50;0.50;;;13.90;1.00;;;;;;5114650;28;20216;-72
2022/04/25 07:53:19;;;;;;;0.40;0.40;;;13.30;1.00;;;;;;5115416;28;20212;-73
2022/04/25 07:55:44;;;;;;;0.40;0.40;;;13.50;1.00;;;;;;5115546;28;20169;-72
2022/04/25 07:58:10;;;;;;;0.50;0.50;;;13.80;99.90;;;;;;5115627;28;20699;-72
2022/04/25 08:00:38;;;;;;;0.50;0.50;;;14.60;1.00;;;;;;5114834;28;20193;-73
2022/04/25 08:03:04;;;;;;;0.43;0.43;;;14.40;1.00;;;;;;5115435;28;20176;-72
2022/04/25 08:05:30;;;;;;;0.37;0.37;;;14.40;1.00;;;;;;5115649;28;20173;-73
2022/04/25 08:07:55;;;;;;;0.40;0.40;;;14.30;99.90;;;;;;5115223;28;20727;-72
2022/04/25 08:10:21;;;;;;;0.40;0.40;;;13.60;99.90;;;;;;5114706;28;20200;-71
2022/04/25 08:18:14;;;;;;;0.40;0.40;;;13.00;99.90;;;;;;5115377;28;20176;-73
2022/04/25 08:20:41;;;;;;;0.50;0.50;;;13.00;1.00;;;;;;5114634;28;20197;-72
2022/04/25 08:23:10;;;;;;;0.47;0.47;;;13.30;1.00;;;;;;5114941;28;20161;-73
2022/04/25 08:25:36;;;;;;;0.40;0.40;;;13.40;1.00;;;;;;5114888;28;20177;-72
2022/04/25 08:28:02;;;;;;;0.33;0.33;;;14.00;1.00;;;;;;5114713;28;20281;-72
2022/04/25 08:30:31;;;;;;;0.50;0.50;;;13.90;1.00;;;;;;5114504;28;20204;-73
2022/04/25 08:32:57;;;;;;;0.40;0.40;;;13.70;1.00;;;;;;5114919;28;20181;-73
2022/04/25 08:35:24;;;;;;;0.40;0.40;;;13.70;1.00;;;;;;5114939;28;20226;-73
2022/04/25 08:37:50;;;;;;;0.50;0.50;;;13.80;1.00;;;;;;5114809;28;20253;-73
2022/04/25 08:40:16;;;;;;;0.50;0.50;;;13.80;1.00;;;;;;5113912;28;20673;-72
2022/04/25 08:42:42;;;;;;;0.50;0.50;;;13.80;99.90;;;;;;5114531;28;20176;-73
2022/04/25 08:45:09;;;;;;;0.40;0.40;;;13.30;1.00;;;;;;5114560;28;20230;-72
2022/04/25 08:48:00;;;;;;;0.50;0.50;;;13.10;99.90;;;;;;5114293;28;20228;-73
2022/04/25 08:50:27;;;;;;;0.40;0.40;;;13.40;99.90;;;;;;5113624;28;20666;-73
2022/04/25 08:52:54;;;;;;;0.50;0.50;;;13.30;30.30;;;;;;5114392;28;20630;-74
2022/04/25 08:55:21;;;;;;;0.57;0.57;;;13.40;1.00;;;;;;5114181;28;20706;-72
2022/04/25 08:57:48;;;;;;;0.40;0.40;;;13.60;30.60;;;;;;5114249;28;20181;-73
2022/04/25 09:00:15;;;;;;;0.40;0.40;;;13.50;1.00;;;;;;5113512;28;20536;-73
2022/04/25 09:02:42;;;;;;;0.50;0.50;;;13.60;1.00;;;;;;5114306;28;20234;-72
2022/04/25 09:05:08;;;;;;;0.50;0.50;;;13.80;1.00;;;;;;5114063;28;20181;-72
2022/04/25 09:07:35;;;;;;;0.40;0.40;;;13.70;1.00;;;;;;5114117;28;20293;-72
2022/04/25 09:10:02;;;;;;;0.50;0.50;;;13.60;1.00;;;;;;5113630;28;20173;-73
2022/04/25 09:12:28;;;;;;;0.47;0.47;;;13.80;1.00;;;;;;5112576;28;20233;-72
2022/04/25 09:14:56;;;;;;;0.50;0.50;;;13.70;1.00;;;;;;5114044;27;20177;-71
2022/04/25 09:17:22;;;;;;;0.40;0.40;;;13.80;1.00;;;;;;5113913;28;20553;-73
2022/04/25 09:19:48;;;;;;;0.50;0.50;;;13.30;2.90;;;;;;5113325;28;20549;-72
2022/04/25 09:22:33;;;;;;;0.50;0.50;;;13.20;31.40;;;;;;5113574;28;20280;-74
2022/04/25 09:25:05;;;;;;;0.50;0.50;;;13.00;1.00;;;;;;5113925;28;20176;-73
2022/04/25 09:27:32;;;;;;;0.50;0.50;;;13.00;1.00;;;;;;5113723;28;20215;-73
2022/04/25 09:30:21;;;;;;;0.40;0.40;;;12.90;99.90;;;;;;5113031;28;20177;-73
2022/04/25 09:32:48;;;;;;;0.60;0.60;;;12.60;99.90;;;;;;5113578;27;20215;-72
2022/04/25 09:35:27;;;;;;;0.50;0.50;;;12.50;99.90;;;;;;5113300;28;20621;-72
2022/04/25 09:37:53;;;;;;;0.47;0.47;;;12.60;99.90;;;;;;5113691;28;20181;-72
2022/04/25 09:40:20;;;;;;;0.50;0.50;;;12.70;1.00;;;;;;5113329;28;20195;-73
2022/04/25 09:42:47;;;;;;;0.50;0.50;;;12.60;1.00;;;;;;5113376;28;20551;-73
2022/04/25 09:45:15;;;;;;;0.40;0.40;;;12.70;1.00;;;;;;5113224;28;20587;-73
2022/04/25 09:47:41;;;;;;;0.40;0.40;;;12.70;5.70;;;;;;5113525;28;20251;-73
2022/04/25 09:50:08;;;;;;;0.50;0.50;;;12.90;1.00;;;;;;5112851;28;20229;-73
2022/04/25 09:52:36;;;;;;;0.60;0.60;;;13.10;1.00;;;;;;5113503;28;20544;-73
2022/04/25 09:55:14;;;;;;;0.50;0.50;;;13.10;1.00;;;;;;5113259;28;20173;-73
2022/04/25 09:57:40;;;;;;;0.60;0.60;;;13.40;1.00;;;;;;5113074;27;20169;-72
2022/04/25 10:00:06;;;;;;;0.50;0.50;;;13.70;1.00;;;;;;5112698;28;20252;-72
2022/04/25 10:02:37;;;;;;;0.50;0.50;;;13.80;1.00;;;;;;5113354;28;20173;-73
2022/04/25 10:05:14;;;;;;;0.57;0.57;;;14.00;1.00;;;;;;5112991;28;20634;-71
2022/04/25 10:07:41;;;;;;;0.40;0.40;;;14.30;1.00;;;;;;5112317;28;20209;-71
2022/04/25 10:10:10;;;;;;;0.50;0.50;;;14.60;99.90;;;;;;5112252;28;20306;-72
2022/04/25 10:12:36;;;;;;;0.60;0.60;;;14.50;99.90;;;;;;5112863;28;20180;-73
2022/04/25 10:15:06;;;;;;;0.60;0.60;;;14.70;99.90;;;;;;5112986;28;20185;-72
2022/04/25 10:17:35;;;;;;;0.50;0.50;;;15.10;1.00;;;;;;5113061;28;20177;-72
2022/04/25 10:20:02;;;;;;;0.50;0.50;;;15.10;1.00;;;;;;5112019;28;20193;-73
2022/04/25 10:22:28;;;;;;;0.40;0.40;;;15.90;1.00;;;;;;5112560;28;20572;-72
2022/04/25 10:24:53;;;;;;;0.40;0.40;;;16.30;1.00;;;;;;5112613;28;20180;-72
2022/04/25 10:27:27;;;;;;;0.40;0.40;;;16.40;1.00;;;;;;5112697;28;20250;-72
2022/04/25 10:29:56;;;;;;;0.50;0.50;;;16.60;1.00;;;;;;5112268;28;20388;-73
2022/04/25 10:32:25;;;;;;;0.50;0.50;;;16.80;1.00;;;;;;5112489;28;20226;-73
2022/04/25 10:35:00;;;;;;;0.40;0.40;;;17.30;1.00;;;;;;5114311;28;20189;-72
2022/04/25 10:37:37;;;;;;;0.50;0.50;;;17.30;1.00;;;;;;5113373;27;20177;-73
2022/04/25 10:40:05;;;;;;;0.40;0.40;;;17.10;1.00;;;;;;5113350;27;20204;-71
2022/04/25 10:45:15;;;;;;;0.47;0.47;;;17.00;1.00;;;;;;5112836;28;20218;-70
2022/04/25 10:47:57;;;;;;;0.50;0.50;;;17.20;1.00;;;;;;5112110;28;20618;-71
2022/04/25 10:50:23;;;;;;;0.50;0.50;;;17.70;1.00;;;;;;5111946;28;20225;-72
2022/04/25 10:55:33;;;;;;;0.40;0.40;;;17.50;1.00;;;;;;5112101;28;20157;-71
2022/04/25 10:58:01;;;;;;;0.40;0.40;;;17.30;1.00;;;;;;5112016;28;20177;-70
2022/04/25 11:00:45;;;;;;;0.40;0.40;;;17.00;1.00;;;;;;5111591;28;20545;-72
2022/04/25 11:03:18;;;;;;;0.40;0.40;;;17.80;1.00;;;;;;5112137;28;20169;-71
2022/04/25 11:05:44;;;;;;;0.40;0.40;;;18.30;1.00;;;;;;5111881;28;20196;-71
2022/04/25 11:08:18;;;;;;;0.43;0.43;;;18.50;1.00;;;;;;5111916;28;20239;-74
2022/04/25 11:10:52;;;;;;;0.40;0.40;;;18.00;1.00;;;;;;5111169;28;20216;-74
2022/04/25 11:13:18;;;;;;;0.40;0.40;;;17.70;1.00;;;;;;5111594;28;20181;-74
2022/04/25 11:15:56;;;;;;;0.40;0.40;;;18.30;1.00;;;;;;5111631;28;20669;-73
2022/04/25 11:18:38;;;;;;;0.40;0.40;;;18.30;1.00;;;;;;5110787;28;20619;-73
2022/04/25 11:21:16;;;;;;;0.50;0.50;;;17.80;1.00;;;;;;5111007;28;20203;-73
2022/04/25 11:23:44;;;;;;;0.40;0.40;;;17.20;1.00;;;;;;5111473;28;20548;-72
2022/04/25 11:26:25;;;;;;;0.47;0.47;;;16.90;1.00;;;;;;5111339;28;20656;-72
2022/04/25 11:29:08;;;;;;;0.40;0.40;;;16.40;1.00;;;;;;5111211;28;20213;-74
2022/04/25 11:31:38;;;;;;;0.30;0.30;;;16.10;1.00;;;;;;5111445;28;20574;-73
2022/04/25 11:34:11;;;;;;;0.30;0.30;;;15.80;1.00;;;;;;5112205;22;20709;-83
2022/04/25 11:36:41;;;;;;;0.40;0.40;;;15.50;1.00;;;;;;5055267;28;20198;-84
2022/04/25 11:41:52;;;;;;;0.40;0.40;;;15.20;99.90;;;;;;5055905;28;20221;-84
2022/04/25 11:44:18;;;;;;;0.40;0.40;;;15.10;99.90;;;;;;5068793;28;20171;-84
2022/04/25 11:46:44;;;;;;;0.40;0.40;;;14.90;99.90;;;;;;5066013;28;20657;-84
2022/04/25 11:49:10;;;;;;;0.40;0.40;;;14.70;99.90;;;;;;5067827;28;20227;-80
2022/04/25 11:51:38;;;;;;;0.40;0.40;;;14.60;1.00;;;;;;5072637;28;20199;-82
2022/04/25 11:54:05;;;;;;;0.40;0.40;;;14.70;1.00;;;;;;5055781;28;20183;-82
2022/04/25 11:56:32;;;;;;;0.47;0.47;;;14.60;1.00;;;;;;5055340;28;20179;-83
2022/04/25 11:58:59;;;;;;;0.50;0.50;;;14.30;1.00;;;;;;5055047;28;20658;-83
2022/04/25 12:01:39;;;;;;;0.50;0.50;;;14.10;1.00;;;;;;5057058;28;20218;-81
2022/04/25 12:04:21;;;;;;;0.50;0.50;;;14.00;1.00;;;;;;5054176;28;20190;-82
2022/04/25 12:06:50;;;;;;;0.40;0.40;;;13.80;99.90;;;;;;5053631;28;20182;-80
2022/04/25 12:17:39;;;;;;;0.40;0.40;;;13.10;1.00;;;;;;5053651;28;20182;-82
2022/04/25 12:20:09;;;;;;;0.50;0.50;;;12.80;1.00;;;;;;5053363;28;20774;-78
2022/04/25 12:22:36;;;;;;;0.40;0.40;;;12.40;41.60;;;;;;5054770;28;20183;-79
2022/04/25 12:25:15;;;;;;;0.40;0.40;;;11.80;99.90;;;;;;5053233;28;20175;-79
2022/04/25 12:28:04;;;;;;;0.40;0.40;;;11.60;99.90;;;;;;5053172;28;20203;-77
2022/04/25 12:30:32;;;;;;;0.50;0.50;;;11.60;99.90;;;;;;5055035;28;20202;-76
2022/04/25 12:33:12;;;;;;;0.47;0.47;;;11.50;99.90;;;;;;5056669;28;20254;-77
2022/04/25 12:35:38;;;;;;;0.40;0.40;;;11.40;99.90;;;;;;5055483;28;20194;-78
2022/04/25 12:38:05;;;;;;;0.40;0.40;;;11.40;99.90;;;;;;5055043;28;20591;-77
2022/04/25 12:40:31;;;;;;;0.40;0.40;;;11.40;99.90;;;;;;5055333;28;20260;-76
2022/04/25 12:42:57;;;;;;;0.50;0.50;;;11.40;99.90;;;;;;5058584;28;20233;-76
2022/04/25 12:45:23;;;;;;;0.40;0.40;;;11.40;99.90;;;;;;5056210;28;20233;-77
2022/04/25 12:47:56;;;;;;;0.50;0.50;;;11.20;99.90;;;;;;5055643;28;20577;-76
2022/04/25 12:50:57;;;;;;;0.40;0.40;;;11.10;99.90;;;;;;5054939;28;20211;-77
2022/04/25 12:53:39;;;;;;;0.60;0.60;;;10.90;99.90;;;;;;5013380;28;20176;-77
2022/04/25 12:56:05;;;;;;;0.53;0.53;;;11.00;99.90;;;;;;5051427;28;20179;-77
2022/04/25 12:58:34;;;;;;;0.50;0.50;;;11.10;99.90;;;;;;5055035;28;20175;-78
2022/04/25 13:01:00;;;;;;;0.50;0.50;;;11.00;99.90;;;;;;5054468;28;20616;-77
2022/04/25 13:03:26;;;;;;;0.50;0.50;;;10.90;99.90;;;;;;5054566;28;20708;-77
2022/04/25 13:05:53;;;;;;;0.40;0.40;;;11.00;99.90;;;;;;5054796;28;20183;-77
2022/04/25 13:08:19;;;;;;;0.50;0.50;;;11.20;99.90;;;;;;5054950;28;20218;-76
2022/04/25 13:10:45;;;;;;;0.50;0.50;;;11.10;99.90;;;;;;5054088;28;20202;-77
2022/04/25 13:13:11;;;;;;;0.50;0.50;;;11.10;99.90;;;;;;5054879;28;20556;-78
2022/04/25 13:15:38;;;;;;;0.50;0.50;;;11.30;99.90;;;;;;5054379;28;20183;-77
2022/04/25 13:18:04;;;;;;;0.47;0.47;;;11.20;99.90;;;;;;5055984;28;20233;-77
2022/04/25 13:20:31;;;;;;;0.40;0.40;;;11.40;99.90;;;;;;5054382;28;20547;-77
2022/04/25 13:22:59;;;;;;;0.50;0.50;;;11.50;99.90;;;;;;5054815;28;20266;-77
2022/04/25 13:25:25;;;;;;;0.50;0.50;;;11.60;99.90;;;;;;5054416;28;20203;-77
2022/04/25 13:27:53;;;;;;;0.50;0.50;;;11.90;99.90;;;;;;5054570;28;20233;-77
2022/04/25 13:30:20;;;;;;;0.50;0.50;;;11.80;99.90;;;;;;5053889;28;20608;-79
2022/04/25 13:32:47;;;;;;;0.50;0.50;;;12.00;99.90;;;;;;5053684;28;20244;-78
2022/04/25 13:35:14;;;;;;;0.50;0.50;;;12.30;99.90;;;;;;5054094;28;20613;-76
2022/04/25 13:37:43;;;;;;;0.50;0.50;;;12.40;99.90;;;;;;5054195;28;20231;-80
2022/04/25 13:40:10;;;;;;;0.40;0.40;;;12.40;99.90;;;;;;5053511;28;20171;-78